Skip to main content

NOAA/GLERL Met Station at Muskegon, MI

Previous 5 days (top of hour only)
See also Previous 3 Hours (2 minute increments)
Jump down to Data
Switch to [English][Metric]
Zoom: Click and drag, Pan: shift-click and drag, Unzoom: double-click, Unzoom All






Note: Speed = mean wind during 2-minute period at top of hour,
Gust = max wind during 2-minute period at top of hour,
Peak = max wind during entire hour.
• See also 5-day windrose plot


NOAA/GLERL Met Station at Muskegon, MI

Previous 5 days (top of hour only)
See also Previous 3 Hours (2 minute increments)
Jump up to Graphs
Switch to [English][Metric]
                  Wind  Wind  Wind   Air   Dew   Rel     Sta   PAR
                   Spd   Gst   Dir  Temp    Pt   Hum    Pres uE/m2/
YYYY-MM-DD   EDT   m/s   m/s   deg     C     C     %      mb   sec
2021-04-20 00:00 -99.0 -99.0   -99   0.0   0.0   0.0    0.00     0
2021-04-19 14:00   8.7   9.6   329   5.3   1.8  77.8  988.90  1046
2021-04-19 13:00   7.7   9.0   328   5.5   2.9  83.3  988.50  1362
2021-04-19 12:00   7.7   9.2   341   5.5   3.8  88.7  987.80  1307
2021-04-19 11:00   5.7   6.3   327   5.0   4.0  93.1  987.30   150
2021-04-19 10:00   8.8   9.9   318   5.6   4.5  92.6  986.70   137
2021-04-19 09:00   4.9   5.4   311   5.8   4.2  89.1  986.20    55
2021-04-19 08:00   7.1   7.8   266   6.2   3.5  82.6  985.60    75
2021-04-19 07:00   8.8   9.6   257   7.2   3.1  75.0  985.00     6
2021-04-19 06:00  10.7  12.1   244   7.1   3.3  76.6  984.80     2
2021-04-19 05:00   9.5  10.2   236   7.1   3.4  77.2  985.00     2
2021-04-19 04:00   8.9   9.8   241   7.1   3.3  76.9  985.60     2
2021-04-19 03:00   7.6   8.1   232   6.9   3.5  79.1  986.30     2
2021-04-19 02:00   6.9   7.6   219   6.8   3.2  77.9  987.10     2
2021-04-19 01:00   6.1   6.6   192   7.0   2.5  73.0  987.30     2
2021-04-19 00:00   7.0   7.6   191   8.6   2.8  66.7  987.80     2
2021-04-18 23:00   7.3   7.9   189   9.8   2.4  59.8  988.30     2
2021-04-18 22:00   2.0   2.7   175   9.5  -0.1  51.1  988.80     2
2021-04-18 21:00   2.8   3.5   187   9.4   0.6  53.9  988.90     2
2021-04-18 20:00   3.4   3.9   185   9.1  -0.2  52.1  989.10   100
2021-04-18 19:00   3.2   3.5   196   8.7  -0.5  52.3  989.90   258
2021-04-18 18:00   2.4   2.9   197   8.3   0.4  57.3  990.00   508
2021-04-18 17:00   1.9   2.1   218   7.9   0.4  58.8  990.40  1780
2021-04-18 16:00   2.7   3.2   236   8.0  -3.2  45.0  991.10  1693
2021-04-18 15:00   3.2   3.6   246   8.3  -1.9  48.5  991.40  1826
2021-04-18 14:00   3.2   3.5   248   7.6  -3.3  46.0  991.60  1795
2021-04-18 13:00   2.0   2.3   254   7.2  -2.2  51.1  992.20  1823
2021-04-18 12:00   2.3   2.7   251   7.1  -1.6  53.8  992.70  1448
2021-04-18 11:00   1.7   1.9   223   6.8  -2.5  51.4  993.00  1642
2021-04-18 10:00   1.6   2.1    94   6.7  -7.1  36.7  993.40   788
2021-04-18 09:00   0.9   1.4   128   6.2  -6.5  39.7  993.40   635
2021-04-18 08:00   0.6   0.6     8   4.9   0.7  74.3  993.40   845
2021-04-18 07:00   2.1   2.2   345   3.2   0.2  80.4  992.90    23
2021-04-18 06:00   1.8   2.0     7   2.0   0.0  86.4  992.50     2
2021-04-18 05:00   3.3   3.4   352   3.7   1.8  87.2  992.70     2
2021-04-18 04:00   2.2   2.3   360   3.6  -2.1  66.2  992.60     2
2021-04-18 03:00   4.0   4.4    71   4.6  -2.1  61.9  992.60     2
2021-04-18 02:00   4.1   4.8    41   5.1  -1.8  61.0  992.70     2
2021-04-18 01:00   3.6   4.4     2   4.6  -1.7  63.6  992.70     2
2021-04-18 00:00   3.6   4.4   355   4.8   3.1  89.0  992.40     2
2021-04-17 23:00   4.5   5.1   347   5.0   3.6  90.3  992.40     2
2021-04-17 22:00   2.8   3.3    12   5.7   0.4  68.6  992.40     2
2021-04-17 21:00   5.1   5.6   348   5.7   4.1  89.6  992.00     2
2021-04-17 20:00   6.1   7.1   350   4.7   2.4  85.2  992.10   184
2021-04-17 19:00   8.9   9.2   347   5.6   1.9  77.2  992.20  1139
2021-04-17 18:00   8.7   9.2   345   5.7   1.5  74.2  992.10  1567
2021-04-17 17:00   8.2   9.2   345   6.3   1.5  71.1  992.20  1708
2021-04-17 16:00   9.7  10.7   341   6.1   1.0  69.9  992.40  1776
2021-04-17 15:00   9.4  10.8   343   6.5  -0.7  60.1  992.80  1806
2021-04-17 14:00   8.4   9.2   340   6.2   1.0  69.0  992.80  1817
2021-04-17 13:00   8.3   8.7   341   6.0   2.6  78.6  992.80  1795
2021-04-17 12:00   5.5   5.7   337   6.1   2.6  77.9  993.30  1747
2021-04-17 11:00   3.3   3.7   321   5.4   1.7  77.2  993.40  1678
2021-04-17 10:00   2.8   3.1   325   4.6   1.0  77.6  993.40  1557
2021-04-17 09:00   1.9   2.3    32   5.2   0.2  70.2  993.50  1322
2021-04-17 08:00   2.2   3.2    31   2.6  -0.3  81.1  993.20   838
2021-04-17 07:00   3.7   5.2    45   1.0  -0.7  88.5  992.70    20
2021-04-17 06:00   2.8   3.3    28   0.9  -0.7  89.2  992.70     2
2021-04-17 05:00   3.3   3.6    56   1.6  -0.2  88.0  992.90     2
2021-04-17 04:00   1.3   1.9    32   1.9  -0.1  86.3  992.90     2
2021-04-17 03:00   3.4   4.0    61   2.7   0.3  84.1  992.90     2
2021-04-17 02:00   4.4   5.4    69   3.1   0.4  82.6  992.90     2
2021-04-17 01:00   3.8   4.8    67   3.4   0.3  80.0  992.90     2
2021-04-17 00:00   4.4   5.4    52   3.6   0.3  79.0  993.10     2
2021-04-16 23:00   3.8   4.6    32   3.8   0.5  79.1  993.20     2
2021-04-16 22:00   6.7   7.2   339   5.0   2.9  86.3  993.30     2
2021-04-16 21:00   4.4   5.1   348   4.9   1.4  78.0  993.00     2
2021-04-16 20:00   8.4   9.9   352   4.9   1.8  80.0  992.90   401
2021-04-16 19:00   7.8   8.4   346   6.2   2.3  76.0  992.70  1213
2021-04-16 18:00  10.0  11.4   354   5.2   1.4  76.3  992.70  1549
2021-04-16 17:00  10.6  12.0   337   5.0   1.9  80.3  992.70  1703
2021-04-16 16:00  11.3  12.1   336   5.3   2.0  79.3  992.50  1768
2021-04-16 15:00  11.0  11.9   341   4.9   1.5  78.8  993.00  1810
2021-04-16 14:00  11.2  12.0   345   4.4   1.4  80.6  993.60  1770
2021-04-16 13:00  10.0  11.0   343   4.0   1.2  82.1  994.20  1128
2021-04-16 12:00   9.1   9.9   346   3.8   1.0  82.0  994.30   805
2021-04-16 11:00   9.1  10.1   339   4.0   1.3  82.3  994.20   686
2021-04-16 10:00   6.4   8.0    28   4.3   0.1  74.3  993.80   803
2021-04-16 09:00   3.1   4.1    10   3.7   0.1  77.1  994.30   314
2021-04-16 08:00   5.8   6.4    11   3.0  -0.3  78.7  994.30   117
2021-04-16 07:00   3.5   4.3    16   2.7  -0.2  81.1  993.80    11
2021-04-16 06:00   4.0   5.3    16   2.6  -0.4  80.5  993.80     2
2021-04-16 05:00   5.0   6.9     4   3.4  -0.2  77.0  994.00     2
2021-04-16 04:00   4.4   5.4    11   3.5   0.4  80.2  994.20     2
2021-04-16 03:00   3.8   4.4     7   4.0   0.5  78.0  994.40     2
2021-04-16 02:00   6.0   7.4   358   4.3   1.9  84.3  994.70     2
2021-04-16 01:00   5.2   5.9     7   4.5   1.0  78.0  994.50     2
2021-04-16 00:00   8.2   8.7   344   4.6   2.6  86.7  994.30     2
2021-04-15 23:00   6.8   7.4   338   4.6   2.6  86.8  994.60     2
2021-04-15 22:00   7.1   7.9   343   4.5   2.3  85.8  994.30     2
2021-04-15 21:00   6.4   6.7   328   4.4   2.3  86.2  994.30     2
2021-04-15 20:00   5.0   5.5   352   5.1   2.5  83.1  994.00    90
2021-04-15 19:00   5.8   6.6    17   6.9   0.3  62.7  994.20   309
2021-04-15 18:00   5.4   7.4   353   6.5   1.9  72.4  994.30   364
2021-04-15 17:00  11.2  12.1   346   5.7   1.3  73.2  994.20   826
2021-04-15 16:00  12.3  14.2   355   5.3   0.8  72.4  994.30  1027
2021-04-15 15:00  13.0  14.1   345   4.7   1.3  78.6  994.30   829
2021-04-15 14:00  11.5  13.3   351   5.2   1.5  77.1  993.90  1288
2021-04-15 13:00  13.1  14.8   346   4.6   1.2  78.8  993.80   883
2021-04-15 12:00  11.0  12.2   356   4.9   1.1  76.3  993.60   951
2021-04-15 11:00   9.2  12.2     2   3.9   0.9  80.6  993.80   358
2021-04-15 10:00  11.0  13.3   356   4.0   0.9  80.2  993.50   604
2021-04-15 09:00   8.3  10.9     0   3.6   1.3  84.9  993.20   255
2021-04-15 08:00  11.3  13.7   351   3.8   2.2  89.4  992.80    71
2021-04-15 07:00  12.4  14.2   348   3.6   2.2  90.8  992.80     4
2021-04-15 06:00  12.4  13.7   344   3.9   2.5  90.8  992.50     2
2021-04-15 05:00   9.6  10.5   335   4.3   3.0  91.0  992.50     2
2021-04-15 04:00   8.7   9.5   316   4.2   2.2  86.8  992.60     2
2021-04-15 03:00  10.0  10.6   310   4.3   1.4  81.2  993.10     2
2021-04-15 02:00   8.5   9.6   307   4.4   1.3  80.0  993.80     2
2021-04-15 01:00   8.8   9.4   298   4.5   0.8  76.7  994.20     2
2021-04-15 00:00   7.8   8.7   299   4.4   0.9  77.8  994.60     2
2021-04-14 23:00   7.4   8.2   292   4.3   0.8  77.9  995.30     2
2021-04-14 22:00   7.0   7.4   287   4.2   0.2  74.9  995.70     2
2021-04-14 21:00   5.6   6.2   293   4.0  -0.2  74.2  996.00     2
2021-04-14 20:00   5.3   5.8   301   4.2   0.0  74.2  996.00   418